Time;durP1;ratioP1;P1;durP2;ratioP2;P2;SDS_P1;SDS_P2;PMS_P1;PMS_P2;Temp;Humidity;BMP_temperature;BMP_pressure;BME280_temperature;BME280_humidity;BME280_pressure;Samples;Min_cycle;Max_cycle;Signal;HPM_P1;HPM_P2
2021/11/26 00:00:33;;;;;;;44.08;24.25;;;0.90;99.90;;;;;;5013117;28;20195;-69
2021/11/26 00:03:00;;;;;;;53.83;25.80;;;0.80;99.90;;;;;;5012093;28;20233;-69
2021/11/26 00:05:28;;;;;;;49.47;24.15;;;0.80;99.90;;;;;;5012714;28;20206;-69
2021/11/26 00:07:55;;;;;;;52.97;26.38;;;0.90;99.90;;;;;;5012819;28;20229;-70
2021/11/26 00:10:22;;;;;;;51.83;26.75;;;0.90;99.90;;;;;;5012720;28;20321;-70
2021/11/26 00:12:54;;;;;;;54.03;25.08;;;0.90;99.90;;;;;;5012014;28;20210;-69
2021/11/26 00:15:34;;;;;;;53.58;26.60;;;0.90;99.90;;;;;;5012568;28;20201;-69
2021/11/26 00:18:08;;;;;;;51.72;28.30;;;0.90;99.90;;;;;;4998638;28;20227;-69
2021/11/26 00:20:37;;;;;;;46.22;26.48;;;0.90;99.90;;;;;;4972948;28;20703;-69
2021/11/26 00:23:07;;;;;;;51.95;26.35;;;0.90;99.90;;;;;;4972628;28;20698;-69
2021/11/26 00:25:34;;;;;;;49.47;27.25;;;0.90;99.90;;;;;;4972864;28;20627;-69
2021/11/26 00:28:01;;;;;;;55.25;26.48;;;0.90;99.90;;;;;;4972440;28;20231;-69
2021/11/26 00:30:28;;;;;;;52.53;25.60;;;0.90;99.90;;;;;;4973097;28;20711;-69
2021/11/26 00:32:57;;;;;;;47.20;25.65;;;0.90;99.90;;;;;;4972397;28;20223;-69
2021/11/26 00:35:26;;;;;;;51.45;25.60;;;0.80;99.90;;;;;;4972890;28;20204;-69
2021/11/26 00:37:57;;;;;;;46.20;24.60;;;0.90;99.90;;;;;;4972863;28;20251;-69
2021/11/26 00:40:24;;;;;;;48.35;25.10;;;0.90;99.90;;;;;;4973654;28;20203;-70
2021/11/26 00:42:51;;;;;;;48.78;23.45;;;0.90;99.90;;;;;;4973409;28;20207;-70
2021/11/26 00:45:18;;;;;;;41.13;23.58;;;0.90;99.90;;;;;;4973667;28;20576;-69
2021/11/26 00:47:45;;;;;;;48.17;24.95;;;0.90;99.90;;;;;;4974865;28;20359;-69
2021/11/26 00:50:13;;;;;;;48.60;24.48;;;0.90;99.90;;;;;;4972909;28;20204;-70
2021/11/26 00:52:43;;;;;;;45.03;24.10;;;0.90;99.90;;;;;;4972183;28;20707;-70
2021/11/26 00:55:13;;;;;;;48.78;24.83;;;0.90;99.90;;;;;;4972939;28;20326;-70
2021/11/26 00:57:40;;;;;;;50.10;26.77;;;0.90;99.90;;;;;;4972027;28;20270;-70
2021/11/26 01:00:09;;;;;;;51.95;26.13;;;0.80;99.90;;;;;;4988566;28;20536;-69
2021/11/26 01:02:36;;;;;;;55.42;26.90;;;0.80;99.90;;;;;;4991979;28;20226;-70
2021/11/26 01:05:03;;;;;;;42.97;25.08;;;0.80;99.90;;;;;;4992452;28;20233;-70
2021/11/26 01:07:30;;;;;;;51.35;25.08;;;0.80;99.90;;;;;;4992749;28;20219;-69
2021/11/26 01:09:57;;;;;;;42.63;22.60;;;0.80;99.90;;;;;;4991705;28;20662;-69
2021/11/26 01:12:25;;;;;;;46.28;23.85;;;0.80;99.90;;;;;;4992474;28;20223;-70
2021/11/26 01:14:51;;;;;;;41.60;22.85;;;0.80;99.90;;;;;;4992076;28;20238;-69
2021/11/26 01:17:18;;;;;;;47.75;26.27;;;0.80;99.90;;;;;;4992742;28;20328;-69
2021/11/26 01:19:46;;;;;;;51.95;24.35;;;0.80;99.90;;;;;;4992239;28;20203;-70
2021/11/26 01:22:13;;;;;;;49.67;25.92;;;0.80;99.90;;;;;;4992394;28;20230;-70
2021/11/26 01:24:40;;;;;;;52.95;24.75;;;0.80;99.90;;;;;;4992597;28;20671;-69
2021/11/26 01:27:07;;;;;;;51.75;25.95;;;0.90;99.90;;;;;;4992167;28;20230;-69
2021/11/26 01:29:36;;;;;;;50.20;25.55;;;0.90;99.90;;;;;;4992705;28;20292;-70
2021/11/26 01:32:04;;;;;;;48.20;26.25;;;0.90;99.90;;;;;;4991731;28;20718;-69
2021/11/26 01:34:30;;;;;;;43.08;23.95;;;0.90;99.90;;;;;;4992326;28;20239;-70
2021/11/26 01:36:57;;;;;;;43.38;23.17;;;0.90;99.90;;;;;;4992104;28;20223;-69
2021/11/26 01:39:24;;;;;;;46.50;23.58;;;0.90;99.90;;;;;;4992278;28;20207;-68
2021/11/26 01:41:52;;;;;;;41.92;22.90;;;0.90;99.90;;;;;;4991978;28;20213;-69
2021/11/26 01:44:20;;;;;;;44.42;26.08;;;0.90;99.90;;;;;;4992090;28;20225;-69
2021/11/26 01:46:48;;;;;;;49.03;25.23;;;0.90;99.90;;;;;;4992074;28;20214;-69
2021/11/26 01:49:16;;;;;;;47.50;25.95;;;0.90;99.90;;;;;;4991824;28;20207;-69
2021/11/26 01:51:43;;;;;;;50.47;24.95;;;0.90;99.90;;;;;;4991564;28;20230;-69
2021/11/26 01:54:10;;;;;;;42.33;24.08;;;0.90;99.90;;;;;;4991906;28;20223;-69
2021/11/26 01:56:38;;;;;;;53.45;24.50;;;0.90;99.90;;;;;;4991631;28;20206;-69
2021/11/26 01:59:06;;;;;;;45.67;24.52;;;0.80;99.90;;;;;;4992038;28;20229;-69
2021/11/26 02:01:33;;;;;;;40.60;22.65;;;0.80;99.90;;;;;;4991248;28;20693;-69
2021/11/26 02:04:01;;;;;;;45.13;26.70;;;0.80;99.90;;;;;;4991726;28;20586;-69
2021/11/26 02:06:28;;;;;;;40.85;23.33;;;0.80;99.90;;;;;;4991532;28;20207;-69
2021/11/26 02:08:55;;;;;;;41.88;23.95;;;0.80;99.90;;;;;;4991621;28;20230;-69
2021/11/26 02:11:22;;;;;;;43.03;23.52;;;0.80;99.90;;;;;;4991319;28;20219;-69
2021/11/26 02:13:49;;;;;;;41.70;23.20;;;0.80;99.90;;;;;;4991222;28;20214;-69
2021/11/26 02:16:15;;;;;;;39.78;24.05;;;0.80;99.90;;;;;;4991800;28;20203;-70
2021/11/26 02:18:46;;;;;;;44.10;23.08;;;0.80;99.90;;;;;;4991361;28;20611;-70
2021/11/26 02:21:14;;;;;;;49.13;24.83;;;0.80;99.90;;;;;;4991420;28;20578;-69
2021/11/26 02:23:40;;;;;;;41.45;22.88;;;0.80;99.90;;;;;;4991290;28;20294;-69
2021/11/26 02:26:07;;;;;;;44.33;22.83;;;0.80;99.90;;;;;;4991437;28;20214;-70
2021/11/26 02:28:34;;;;;;;38.88;21.33;;;0.80;99.90;;;;;;4991460;28;20222;-70
2021/11/26 02:31:00;;;;;;;37.20;20.83;;;0.70;99.90;;;;;;4990461;28;20225;-69
2021/11/26 02:33:27;;;;;;;39.22;22.23;;;0.80;99.90;;;;;;4991488;28;20230;-69
2021/11/26 02:35:55;;;;;;;38.35;22.20;;;0.80;99.90;;;;;;4991052;28;20203;-69
2021/11/26 02:38:26;;;;;;;46.30;24.75;;;0.80;99.90;;;;;;4991214;28;20230;-69
2021/11/26 02:40:53;;;;;;;46.35;23.35;;;0.80;99.90;;;;;;4990919;28;20210;-69
2021/11/26 02:43:20;;;;;;;39.53;22.40;;;0.80;99.90;;;;;;4991003;28;20207;-69
2021/11/26 02:45:47;;;;;;;42.85;22.83;;;0.80;99.90;;;;;;4991217;28;20199;-69
2021/11/26 02:48:15;;;;;;;42.63;22.92;;;0.80;99.90;;;;;;4990380;28;20707;-69
2021/11/26 02:50:42;;;;;;;39.10;22.25;;;0.80;99.90;;;;;;4991175;28;20207;-69
2021/11/26 02:53:09;;;;;;;42.33;23.80;;;0.80;99.90;;;;;;4990181;28;20218;-69
2021/11/26 02:55:38;;;;;;;45.78;23.42;;;0.80;99.90;;;;;;4991283;28;20207;-69
2021/11/26 02:58:06;;;;;;;39.15;22.77;;;0.80;99.90;;;;;;4991039;28;20223;-70
2021/11/26 03:00:34;;;;;;;41.92;23.00;;;0.80;99.90;;;;;;4990949;28;20203;-70
2021/11/26 03:03:01;;;;;;;43.75;21.63;;;0.90;99.90;;;;;;4990517;28;20225;-69
2021/11/26 03:05:28;;;;;;;44.63;23.30;;;0.90;99.90;;;;;;4990902;28;20314;-69
2021/11/26 03:07:55;;;;;;;37.78;21.92;;;0.80;99.90;;;;;;4990831;28;20226;-68
2021/11/26 03:10:23;;;;;;;39.88;24.17;;;0.90;99.90;;;;;;4991036;28;20206;-69
2021/11/26 03:12:53;;;;;;;43.45;23.23;;;0.90;99.90;;;;;;4990883;28;20219;-70
2021/11/26 03:15:21;;;;;;;44.47;23.13;;;0.90;99.90;;;;;;4991369;28;20203;-70
2021/11/26 03:17:48;;;;;;;41.50;22.75;;;0.90;99.90;;;;;;4990186;28;20223;-69
2021/11/26 03:20:15;;;;;;;42.45;23.55;;;0.90;99.90;;;;;;4991014;28;20214;-69
2021/11/26 03:22:42;;;;;;;42.08;23.70;;;0.90;99.90;;;;;;4990369;28;20203;-69
2021/11/26 03:25:10;;;;;;;41.95;21.55;;;0.90;99.90;;;;;;4990365;28;20207;-69
2021/11/26 03:27:37;;;;;;;42.13;22.42;;;0.90;99.90;;;;;;4990446;28;20237;-69
2021/11/26 03:30:07;;;;;;;41.15;23.40;;;0.90;99.90;;;;;;4990375;28;20207;-69
2021/11/26 03:32:34;;;;;;;43.95;23.00;;;0.90;99.90;;;;;;4990268;28;20608;-69
2021/11/26 03:35:01;;;;;;;38.83;21.38;;;0.90;99.90;;;;;;4989945;28;20203;-69
2021/11/26 03:37:27;;;;;;;41.17;22.75;;;0.90;99.90;;;;;;4990533;28;20597;-69
2021/11/26 03:39:54;;;;;;;42.13;22.63;;;0.90;99.90;;;;;;4990008;28;20667;-69
2021/11/26 03:42:21;;;;;;;39.42;22.48;;;0.90;99.90;;;;;;4990120;28;20203;-69
2021/11/26 03:44:47;;;;;;;41.40;23.33;;;0.80;99.90;;;;;;4990496;28;20570;-69
2021/11/26 03:47:16;;;;;;;44.15;26.38;;;0.80;99.90;;;;;;4990030;28;20234;-69
2021/11/26 03:49:43;;;;;;;44.75;23.13;;;0.80;99.90;;;;;;4990515;28;20214;-69
2021/11/26 03:52:09;;;;;;;39.20;22.60;;;0.70;99.90;;;;;;5194591;22;20226;-69
2021/11/26 03:54:38;;;;;;;42.75;22.10;;;0.80;99.90;;;;;;5029352;28;20198;-70
2021/11/26 03:57:05;;;;;;;41.20;23.55;;;0.80;99.90;;;;;;5029262;28;20229;-70
2021/11/26 03:59:32;;;;;;;39.03;22.42;;;0.80;99.90;;;;;;5031492;28;20700;-70
2021/11/26 04:01:58;;;;;;;44.10;24.00;;;0.80;99.90;;;;;;5032858;28;20201;-71
2021/11/26 04:04:27;;;;;;;37.33;22.08;;;0.80;99.90;;;;;;5032691;28;20259;-69
2021/11/26 04:06:53;;;;;;;42.60;24.40;;;0.80;99.90;;;;;;5032783;28;20226;-71
2021/11/26 04:09:20;;;;;;;41.17;23.15;;;0.80;99.90;;;;;;5032759;28;20688;-70
2021/11/26 04:11:47;;;;;;;38.30;21.45;;;0.80;99.90;;;;;;5032205;28;20230;-70
2021/11/26 04:14:13;;;;;;;47.30;23.67;;;0.80;99.90;;;;;;5033155;28;20224;-70
2021/11/26 04:16:40;;;;;;;42.45;23.30;;;0.80;99.90;;;;;;5032476;28;20579;-71
2021/11/26 04:19:07;;;;;;;40.70;21.95;;;0.80;99.90;;;;;;5033059;28;20212;-70
2021/11/26 04:21:35;;;;;;;43.35;22.73;;;0.90;99.90;;;;;;5031741;28;20221;-71
2021/11/26 04:24:03;;;;;;;41.95;22.88;;;0.80;99.90;;;;;;5032921;28;20209;-71
2021/11/26 04:26:30;;;;;;;42.95;22.52;;;0.80;99.90;;;;;;5032227;28;20198;-70
2021/11/26 04:28:57;;;;;;;41.38;22.50;;;0.80;99.90;;;;;;5032649;28;20208;-70
2021/11/26 04:31:24;;;;;;;47.22;25.42;;;0.80;99.90;;;;;;5031585;28;20684;-71
2021/11/26 04:33:51;;;;;;;45.95;24.50;;;0.80;99.90;;;;;;5031233;28;20198;-71
2021/11/26 04:36:18;;;;;;;48.42;24.27;;;0.70;99.90;;;;;;5031034;28;20434;-70
2021/11/26 04:38:46;;;;;;;41.53;23.05;;;0.70;99.90;;;;;;5030434;28;20220;-71
2021/11/26 04:41:12;;;;;;;42.50;24.05;;;0.70;99.90;;;;;;5030767;28;20201;-70
2021/11/26 04:43:39;;;;;;;45.75;25.25;;;0.70;99.90;;;;;;5030488;28;20206;-70
2021/11/26 04:46:06;;;;;;;50.17;25.33;;;0.80;99.90;;;;;;5031024;28;20794;-71
2021/11/26 04:48:33;;;;;;;40.95;22.88;;;0.70;99.90;;;;;;5030470;28;20214;-69
2021/11/26 04:51:00;;;;;;;43.17;23.90;;;0.70;99.90;;;;;;5027738;28;20205;-72
2021/11/26 04:53:26;;;;;;;42.13;23.70;;;0.70;99.90;;;;;;5023961;28;20226;-71
2021/11/26 04:55:54;;;;;;;45.10;23.15;;;0.60;99.90;;;;;;5025854;28;20217;-69
2021/11/26 04:58:21;;;;;;;42.20;22.05;;;0.50;99.90;;;;;;5019310;28;20225;-71
2021/11/26 05:00:48;;;;;;;48.47;24.15;;;0.40;99.90;;;;;;5028307;28;20198;-70
2021/11/26 05:03:15;;;;;;;41.72;22.95;;;0.40;99.90;;;;;;5029690;28;20194;-72
2021/11/26 05:05:41;;;;;;;42.35;23.73;;;0.40;99.90;;;;;;5030279;28;20205;-73
2021/11/26 05:08:08;;;;;;;45.67;22.58;;;0.40;99.90;;;;;;5029562;28;20209;-72
2021/11/26 05:10:35;;;;;;;47.97;25.02;;;0.20;99.90;;;;;;5029239;28;20198;-73
2021/11/26 05:13:04;;;;;;;52.55;26.02;;;0.20;99.90;;;;;;5027207;28;20586;-73
2021/11/26 05:15:32;;;;;;;50.20;24.20;;;0.20;99.90;;;;;;5029032;28;20217;-73
2021/11/26 05:18:01;;;;;;;44.58;23.50;;;0.10;99.90;;;;;;5029510;28;20634;-73
2021/11/26 05:20:28;;;;;;;46.20;25.63;;;0.00;99.90;;;;;;5029539;28;20202;-73
2021/11/26 05:22:55;;;;;;;49.85;27.13;;;-0.10;99.90;;;;;;5028681;28;20449;-73
2021/11/26 05:25:22;;;;;;;52.67;25.45;;;-0.10;99.90;;;;;;5029584;28;20550;-73
2021/11/26 05:27:50;;;;;;;47.65;24.15;;;0.00;99.90;;;;;;5029014;28;20224;-73
2021/11/26 05:30:18;;;;;;;47.38;24.75;;;0.00;99.90;;;;;;5030934;28;20201;-73
2021/11/26 05:32:47;;;;;;;42.67;21.90;;;0.00;99.90;;;;;;5030096;28;20229;-73
2021/11/26 05:35:15;;;;;;;47.15;24.27;;;0.00;99.90;;;;;;5031077;28;20818;-73
2021/11/26 05:37:42;;;;;;;56.17;25.63;;;0.10;99.90;;;;;;5030390;28;20225;-73
2021/11/26 05:40:12;;;;;;;49.50;23.42;;;0.20;99.90;;;;;;5031169;28;20217;-73
2021/11/26 05:42:39;;;;;;;46.53;23.08;;;0.30;99.90;;;;;;5029769;28;20198;-73
2021/11/26 05:45:08;;;;;;;44.53;23.92;;;0.40;99.90;;;;;;5031125;28;20205;-73
2021/11/26 05:47:36;;;;;;;42.20;23.98;;;0.40;99.90;;;;;;5030193;28;20278;-73
2021/11/26 05:50:06;;;;;;;50.85;25.63;;;0.50;99.90;;;;;;5031079;28;20202;-73
2021/11/26 05:52:32;;;;;;;48.05;24.00;;;0.50;99.90;;;;;;5030027;28;20255;-73
2021/11/26 05:54:59;;;;;;;46.67;24.67;;;0.50;99.90;;;;;;5028817;28;20205;-73
2021/11/26 05:57:26;;;;;;;47.65;25.23;;;0.50;99.90;;;;;;5030606;28;20229;-73
2021/11/26 05:59:52;;;;;;;45.95;23.60;;;0.60;99.90;;;;;;5029929;28;20205;-73
2021/11/26 06:02:19;;;;;;;45.50;22.40;;;0.60;99.90;;;;;;5030226;28;20240;-73
2021/11/26 06:04:47;;;;;;;45.70;23.40;;;0.60;99.90;;;;;;5030677;28;20216;-73
2021/11/26 06:07:14;;;;;;;47.90;24.60;;;0.70;99.90;;;;;;5030152;28;20712;-73
2021/11/26 06:09:41;;;;;;;34.97;20.92;;;0.70;99.90;;;;;;5030640;28;20701;-73
2021/11/26 06:12:09;;;;;;;41.67;20.85;;;0.80;99.90;;;;;;5030216;28;20228;-73
2021/11/26 06:14:36;;;;;;;37.83;20.00;;;0.80;99.90;;;;;;5030844;28;20509;-73
2021/11/26 06:17:02;;;;;;;37.55;19.73;;;0.80;99.90;;;;;;5030561;28;20593;-72
2021/11/26 06:19:29;;;;;;;38.83;20.65;;;0.80;99.90;;;;;;5030569;28;20688;-72
2021/11/26 06:21:57;;;;;;;40.83;21.30;;;0.80;99.90;;;;;;5029783;28;20508;-72
2021/11/26 06:24:24;;;;;;;40.35;21.45;;;0.80;99.90;;;;;;5030418;28;20204;-72
2021/11/26 06:26:51;;;;;;;41.38;21.27;;;0.90;99.90;;;;;;5030532;28;20209;-73
2021/11/26 06:29:17;;;;;;;36.15;21.17;;;0.90;99.90;;;;;;5030351;28;20637;-74
2021/11/26 06:31:44;;;;;;;36.08;20.27;;;0.90;99.90;;;;;;5030132;28;20217;-73
2021/11/26 06:34:11;;;;;;;39.28;21.35;;;0.90;99.90;;;;;;5032809;28;20222;-73
2021/11/26 06:36:38;;;;;;;38.75;20.40;;;0.90;99.90;;;;;;5030477;28;20212;-73
2021/11/26 06:39:06;;;;;;;46.03;23.00;;;1.00;99.90;;;;;;5030643;28;20206;-73
2021/11/26 06:41:33;;;;;;;40.85;23.20;;;1.10;99.90;;;;;;5029401;28;20206;-73
2021/11/26 06:44:00;;;;;;;41.85;22.00;;;1.20;99.90;;;;;;5030478;28;20213;-73
2021/11/26 06:46:27;;;;;;;36.17;20.33;;;1.20;99.90;;;;;;5029778;28;20212;-74
2021/11/26 06:48:53;;;;;;;37.05;21.83;;;1.20;99.90;;;;;;5030509;28;20713;-73
2021/11/26 06:51:20;;;;;;;39.70;21.33;;;1.20;99.90;;;;;;5029853;28;20210;-74
2021/11/26 06:53:47;;;;;;;34.05;18.95;;;1.20;99.90;;;;;;5029787;28;20708;-71
2021/11/26 06:56:16;;;;;;;37.72;20.55;;;1.10;99.90;;;;;;5030346;28;20198;-73
2021/11/26 06:58:43;;;;;;;41.60;21.77;;;1.10;99.90;;;;;;5029576;28;20225;-74
2021/11/26 07:01:11;;;;;;;34.88;19.55;;;1.10;99.90;;;;;;5028058;28;20202;-72
2021/11/26 07:03:38;;;;;;;36.45;20.58;;;1.10;99.90;;;;;;5029506;28;20201;-73
2021/11/26 07:06:05;;;;;;;34.05;21.30;;;1.10;99.90;;;;;;5030273;28;20212;-73
2021/11/26 07:08:31;;;;;;;33.95;19.85;;;1.10;99.90;;;;;;5029895;28;20226;-74
2021/11/26 07:10:58;;;;;;;36.38;20.77;;;1.10;99.90;;;;;;5029409;28;20209;-72
2021/11/26 07:13:26;;;;;;;35.28;20.42;;;1.00;99.90;;;;;;5030134;28;20272;-74
2021/11/26 07:15:53;;;;;;;38.17;22.17;;;1.00;99.90;;;;;;5029429;28;20205;-73
2021/11/26 07:18:19;;;;;;;36.72;20.48;;;0.80;99.90;;;;;;5029800;28;20221;-73
2021/11/26 07:20:46;;;;;;;41.10;22.67;;;0.80;99.90;;;;;;5029460;28;20527;-74
2021/11/26 07:23:13;;;;;;;39.88;19.63;;;0.80;99.90;;;;;;5029527;28;20202;-73
2021/11/26 07:25:40;;;;;;;41.28;21.05;;;0.70;99.90;;;;;;5029673;28;20688;-74
2021/11/26 07:28:07;;;;;;;40.00;22.10;;;0.70;99.90;;;;;;5029594;28;20232;-73
2021/11/26 07:30:35;;;;;;;38.05;21.83;;;0.70;99.90;;;;;;5029742;28;20205;-74
2021/11/26 07:33:02;;;;;;;36.85;21.60;;;0.70;99.90;;;;;;5030323;28;20639;-74
2021/11/26 07:35:29;;;;;;;37.80;21.65;;;0.80;99.90;;;;;;5033497;28;20201;-74
2021/11/26 07:37:55;;;;;;;43.05;21.15;;;0.80;99.90;;;;;;5033410;28;20229;-73
2021/11/26 07:40:22;;;;;;;36.70;20.98;;;0.80;99.90;;;;;;5033085;28;20204;-74
2021/11/26 07:42:49;;;;;;;32.92;20.10;;;0.70;99.90;;;;;;5032759;28;20256;-73
2021/11/26 07:45:16;;;;;;;40.50;20.27;;;0.60;99.90;;;;;;5032996;28;20202;-73
2021/11/26 07:47:44;;;;;;;37.80;20.95;;;0.60;99.90;;;;;;5032956;28;20229;-73
2021/11/26 07:50:12;;;;;;;41.67;20.67;;;0.50;99.90;;;;;;5033385;28;20208;-74
2021/11/26 07:52:41;;;;;;;39.20;21.85;;;0.50;99.90;;;;;;5032295;28;20272;-74
2021/11/26 07:55:08;;;;;;;40.08;21.75;;;0.50;99.90;;;;;;5033327;28;20635;-74
2021/11/26 07:57:36;;;;;;;39.45;21.90;;;0.60;99.90;;;;;;5032388;28;20736;-73
2021/11/26 08:00:04;;;;;;;36.28;20.25;;;0.70;99.90;;;;;;5033527;28;20213;-73
2021/11/26 08:02:31;;;;;;;41.85;21.67;;;0.70;99.90;;;;;;5032028;28;20210;-73
2021/11/26 08:04:59;;;;;;;41.28;22.63;;;0.80;99.90;;;;;;5033242;28;20202;-74
2021/11/26 08:07:26;;;;;;;40.78;21.48;;;0.70;99.90;;;;;;5033037;28;20225;-73
2021/11/26 08:09:53;;;;;;;33.17;20.17;;;0.70;99.90;;;;;;5032504;28;20202;-73
2021/11/26 08:12:20;;;;;;;36.58;22.42;;;0.70;99.90;;;;;;5032667;28;20198;-73
2021/11/26 08:14:49;;;;;;;40.25;19.92;;;0.70;99.90;;;;;;5032200;28;20236;-73
2021/11/26 08:17:16;;;;;;;37.85;21.08;;;0.70;99.90;;;;;;5032696;28;20596;-73
2021/11/26 08:19:43;;;;;;;35.15;19.88;;;0.70;99.90;;;;;;5032505;28;20202;-73
2021/11/26 08:22:12;;;;;;;40.47;20.65;;;0.80;99.90;;;;;;5031990;28;20208;-73
2021/11/26 08:24:39;;;;;;;38.83;21.38;;;0.90;99.90;;;;;;5032400;28;20292;-73
2021/11/26 08:27:06;;;;;;;34.78;18.05;;;0.90;99.90;;;;;;5032311;28;20604;-73
2021/11/26 08:29:32;;;;;;;33.03;20.10;;;0.90;99.90;;;;;;5032260;28;20224;-73
2021/11/26 08:31:59;;;;;;;42.05;21.40;;;0.80;99.90;;;;;;5031822;28;20198;-73
2021/11/26 08:34:26;;;;;;;34.75;20.83;;;0.90;99.90;;;;;;5032714;28;20221;-73
2021/11/26 08:36:52;;;;;;;40.58;20.90;;;0.90;99.90;;;;;;5032177;28;20237;-73
2021/11/26 08:39:21;;;;;;;38.60;20.92;;;0.90;99.90;;;;;;5032074;28;20216;-73
2021/11/26 08:41:47;;;;;;;35.63;19.65;;;1.00;99.90;;;;;;5031752;28;20205;-73
2021/11/26 08:44:14;;;;;;;36.58;19.80;;;1.00;99.90;;;;;;5029090;28;20198;-73
2021/11/26 08:46:41;;;;;;;39.60;20.77;;;1.10;99.90;;;;;;5027606;28;20206;-73
2021/11/26 08:49:07;;;;;;;39.78;22.83;;;1.00;99.90;;;;;;5030542;28;20373;-73
2021/11/26 08:51:37;;;;;;;34.90;20.20;;;0.90;99.90;;;;;;5030059;28;20217;-73
2021/11/26 08:54:04;;;;;;;39.97;20.67;;;0.90;99.90;;;;;;5030738;28;20563;-71
2021/11/26 08:56:33;;;;;;;40.28;22.25;;;0.90;99.90;;;;;;5029367;28;20627;-71
2021/11/26 08:59:02;;;;;;;37.38;21.75;;;0.80;99.90;;;;;;5030536;28;20212;-69
2021/11/26 09:01:31;;;;;;;40.00;23.52;;;0.90;99.90;;;;;;5028575;28;20288;-69
2021/11/26 09:03:59;;;;;;;40.17;21.83;;;0.80;99.90;;;;;;5030901;28;20202;-70
2021/11/26 09:06:26;;;;;;;41.30;21.75;;;0.80;99.90;;;;;;5030339;28;20255;-69
2021/11/26 09:08:54;;;;;;;42.05;23.27;;;0.80;99.90;;;;;;5030083;28;20230;-71
2021/11/26 09:11:22;;;;;;;47.15;25.33;;;0.70;99.90;;;;;;5030152;28;20205;-74
2021/11/26 09:13:50;;;;;;;49.47;22.67;;;0.80;99.90;;;;;;5029311;28;20224;-73
2021/11/26 09:16:17;;;;;;;45.88;23.25;;;0.90;99.90;;;;;;5030397;28;20593;-73
2021/11/26 09:18:43;;;;;;;46.85;22.98;;;1.00;99.90;;;;;;5029537;28;20631;-73
2021/11/26 09:21:11;;;;;;;43.05;22.80;;;1.10;99.90;;;;;;5029489;28;20202;-73
2021/11/26 09:23:38;;;;;;;45.60;23.45;;;1.30;99.90;;;;;;5029683;28;20205;-73
2021/11/26 09:26:05;;;;;;;39.35;21.05;;;1.20;99.90;;;;;;5029725;28;20210;-73
2021/11/26 09:28:32;;;;;;;41.25;21.83;;;1.20;99.90;;;;;;5029784;28;20217;-73
2021/11/26 09:31:00;;;;;;;42.92;23.27;;;1.30;99.90;;;;;;5029418;28;20509;-73
2021/11/26 09:33:33;;;;;;;41.92;21.20;;;1.20;99.90;;;;;;5029745;28;20214;-72
2021/11/26 09:36:00;;;;;;;38.65;22.33;;;1.30;99.90;;;;;;5030028;28;20209;-73
2021/11/26 09:38:27;;;;;;;44.15;23.02;;;1.40;99.90;;;;;;5029058;28;20225;-73
2021/11/26 09:40:54;;;;;;;44.33;22.52;;;1.50;99.90;;;;;;5029391;28;20209;-73
2021/11/26 09:43:21;;;;;;;39.00;21.00;;;1.50;99.90;;;;;;5029116;28;20205;-73
2021/11/26 09:45:47;;;;;;;45.72;23.10;;;1.50;99.90;;;;;;5029107;28;20562;-73
2021/11/26 09:48:16;;;;;;;45.50;23.95;;;1.50;99.90;;;;;;5029617;28;20225;-73
2021/11/26 09:50:43;;;;;;;47.67;23.67;;;1.50;99.90;;;;;;5028803;28;20210;-73
2021/11/26 09:53:15;;;;;;;41.42;21.45;;;1.40;99.90;;;;;;5028955;28;20210;-73
2021/11/26 09:55:52;;;;;;;44.28;24.00;;;1.40;99.90;;;;;;5028742;28;20213;-73
2021/11/26 09:58:20;;;;;;;51.53;24.52;;;1.40;99.90;;;;;;5100971;22;20266;-92
2021/11/26 10:00:49;;;;;;;45.45;25.20;;;1.50;99.90;;;;;;5083805;28;20235;-92
2021/11/26 10:03:19;;;;;;;42.25;22.55;;;1.50;99.90;;;;;;5086840;28;20278;-93
2021/11/26 10:05:47;;;;;;;45.10;22.77;;;1.50;99.90;;;;;;5090311;28;20200;-93
2021/11/26 10:08:21;;;;;;;38.65;22.55;;;1.40;99.90;;;;;;5087552;28;20221;-93
2021/11/26 10:10:48;;;;;;;39.45;20.48;;;1.30;99.90;;;;;;5037726;22;20233;-68
2021/11/26 10:13:17;;;;;;;44.22;23.45;;;1.40;99.90;;;;;;5030532;28;20197;-67
2021/11/26 10:15:47;;;;;;;41.95;23.65;;;1.40;99.90;;;;;;5031052;28;20206;-67
2021/11/26 10:18:18;;;;;;;44.70;23.40;;;1.50;99.90;;;;;;5030500;28;20225;-66
2021/11/26 10:20:55;;;;;;;43.10;25.05;;;1.60;99.90;;;;;;5031065;28;20205;-66
2021/11/26 10:23:24;;;;;;;44.67;22.60;;;1.60;99.90;;;;;;5030654;28;20204;-66
2021/11/26 10:25:53;;;;;;;43.83;22.27;;;1.70;99.90;;;;;;5030793;28;20212;-66
2021/11/26 10:28:21;;;;;;;45.42;22.83;;;1.70;99.90;;;;;;5031003;28;20692;-66
2021/11/26 10:30:49;;;;;;;48.38;23.48;;;1.70;99.90;;;;;;5030506;28;20220;-66
2021/11/26 10:33:23;;;;;;;42.03;21.70;;;1.80;99.90;;;;;;5030947;28;20237;-66
2021/11/26 10:35:53;;;;;;;40.22;21.67;;;1.80;99.90;;;;;;5030784;28;20206;-66
2021/11/26 10:38:21;;;;;;;39.63;21.08;;;1.80;99.90;;;;;;5030996;28;20222;-66
2021/11/26 10:40:51;;;;;;;43.40;23.65;;;1.90;99.90;;;;;;5030116;28;20201;-66
2021/11/26 10:43:20;;;;;;;41.20;24.00;;;1.90;99.90;;;;;;5030642;28;20219;-66
2021/11/26 10:51:33;;;;;;;39.17;21.48;;;1.90;99.90;;;;;;5029664;28;20557;-66
2021/11/26 10:57:13;;;;;;;37.38;20.77;;;1.90;99.90;;;;;;5031086;28;20272;-67
2021/11/26 10:59:41;;;;;;;37.25;20.83;;;2.00;99.90;;;;;;5030805;28;20559;-66
2021/11/26 11:02:08;;;;;;;37.40;20.35;;;2.00;99.90;;;;;;5029670;28;20202;-66
2021/11/26 11:04:38;;;;;;;31.55;17.55;;;2.00;99.90;;;;;;5030672;28;20630;-66
2021/11/26 11:07:06;;;;;;;41.50;23.45;;;1.90;99.90;;;;;;5030441;28;20222;-66
2021/11/26 11:09:40;;;;;;;35.00;19.45;;;1.90;99.90;;;;;;5034203;28;20213;-66
2021/11/26 11:12:08;;;;;;;33.63;19.13;;;1.90;99.90;;;;;;5032723;28;20889;-66
2021/11/26 11:14:35;;;;;;;35.47;20.13;;;1.90;99.90;;;;;;5027870;28;20225;-66
2021/11/26 11:17:02;;;;;;;30.35;17.20;;;1.80;99.90;;;;;;5032043;28;20225;-66
2021/11/26 11:19:30;;;;;;;29.92;16.80;;;1.80;99.90;;;;;;5036391;28;20209;-68
2021/11/26 11:22:00;;;;;;;33.95;20.85;;;1.80;99.90;;;;;;5033485;28;20206;-66
2021/11/26 11:24:29;;;;;;;32.50;19.00;;;1.80;99.90;;;;;;5034527;28;20202;-67
2021/11/26 11:26:56;;;;;;;37.53;19.95;;;1.80;99.90;;;;;;5033641;28;20268;-67
2021/11/26 11:29:26;;;;;;;38.65;18.90;;;1.80;99.90;;;;;;5033840;28;20206;-67
2021/11/26 11:31:55;;;;;;;37.55;19.20;;;1.80;99.90;;;;;;5030519;28;20667;-67
2021/11/26 11:34:29;;;;;;;35.25;18.27;;;1.80;99.90;;;;;;5033510;28;20222;-67
2021/11/26 11:37:00;;;;;;;38.53;20.55;;;1.80;99.90;;;;;;5033395;28;20224;-67
2021/11/26 11:39:27;;;;;;;31.25;17.80;;;1.80;99.90;;;;;;5033167;28;20672;-67
2021/11/26 11:41:56;;;;;;;41.25;19.45;;;1.80;99.90;;;;;;5032996;28;20206;-67
2021/11/26 11:44:30;;;;;;;34.55;18.95;;;1.80;99.90;;;;;;5033078;28;20685;-66
2021/11/26 11:46:58;;;;;;;36.13;19.17;;;1.80;99.90;;;;;;5030025;28;20308;-67
2021/11/26 11:49:27;;;;;;;36.83;20.10;;;1.80;99.90;;;;;;5032867;28;20206;-67
2021/11/26 11:51:59;;;;;;;32.63;19.48;;;1.80;99.90;;;;;;5031874;28;20198;-67
2021/11/26 11:54:37;;;;;;;37.83;17.85;;;1.80;99.90;;;;;;5032621;28;20209;-67
2021/11/26 11:57:06;;;;;;;43.35;23.20;;;1.80;99.90;;;;;;5032000;28;20224;-67
2021/11/26 11:59:35;;;;;;;36.38;18.55;;;1.80;99.90;;;;;;5032137;28;20574;-67
2021/11/26 12:02:04;;;;;;;40.10;19.15;;;1.80;99.90;;;;;;5033638;28;20301;-68
2021/11/26 12:04:37;;;;;;;43.97;20.58;;;1.80;99.90;;;;;;5032787;28;20201;-67
2021/11/26 12:07:07;;;;;;;34.17;19.45;;;1.80;99.90;;;;;;5032518;28;20241;-67
2021/11/26 12:09:35;;;;;;;37.40;20.15;;;1.80;99.90;;;;;;5032521;28;20225;-67
2021/11/26 12:12:07;;;;;;;35.03;20.48;;;1.80;99.90;;;;;;5032603;28;20214;-67
2021/11/26 12:14:48;;;;;;;47.45;20.10;;;1.90;99.90;;;;;;5033113;28;20218;-67
2021/11/26 12:17:26;;;;;;;41.00;21.85;;;1.90;99.90;;;;;;5032976;28;20233;-66
2021/11/26 12:20:05;;;;;;;42.30;19.27;;;2.00;99.90;;;;;;5031597;28;20945;-66
2021/11/26 12:22:40;;;;;;;40.47;20.25;;;1.90;99.90;;;;;;5032142;28;20675;-67
2021/11/26 12:25:20;;;;;;;37.60;19.75;;;1.90;99.90;;;;;;5032660;28;20209;-66
2021/11/26 12:27:56;;;;;;;36.63;19.42;;;2.00;99.90;;;;;;5031843;28;20224;-67
2021/11/26 12:30:23;;;;;;;34.90;19.88;;;2.00;99.90;;;;;;5032902;28;20209;-67
2021/11/26 12:32:50;;;;;;;47.88;20.92;;;1.90;99.90;;;;;;5032008;28;20240;-67
2021/11/26 12:35:17;;;;;;;39.28;19.95;;;1.90;99.90;;;;;;5031864;28;20222;-66
2021/11/26 12:37:48;;;;;;;39.08;19.90;;;1.80;99.90;;;;;;5032235;28;20222;-67
2021/11/26 12:40:16;;;;;;;37.92;20.15;;;1.80;99.90;;;;;;5032549;28;20749;-67
2021/11/26 12:42:43;;;;;;;38.45;19.30;;;1.90;99.90;;;;;;5031526;28;20248;-67
2021/11/26 12:45:12;;;;;;;42.90;20.95;;;2.00;99.90;;;;;;5032700;28;20213;-66
2021/11/26 12:47:43;;;;;;;39.65;19.38;;;2.00;99.90;;;;;;5031813;28;20331;-66